sensor_id;sensor_type;location;lat;lon;timestamp;P1;durP1;ratioP1;P2;durP2;ratioP2
70825;SDS011;58446;41.490;22.098;2023-12-29T00:02:03;91.07;;;49.63;;
70825;SDS011;58446;41.490;22.098;2023-12-29T00:04:29;105.65;;;57.13;;
70825;SDS011;58446;41.490;22.098;2023-12-29T00:06:55;146.30;;;73.85;;
70825;SDS011;58446;41.490;22.098;2023-12-29T00:09:21;129.47;;;66.23;;
70825;SDS011;58446;41.490;22.098;2023-12-29T00:11:47;125.32;;;67.63;;
70825;SDS011;58446;41.490;22.098;2023-12-29T00:14:13;134.55;;;70.70;;
70825;SDS011;58446;41.490;22.098;2023-12-29T00:16:39;177.77;;;90.30;;
70825;SDS011;58446;41.490;22.098;2023-12-29T00:19:05;152.33;;;76.17;;
70825;SDS011;58446;41.490;22.098;2023-12-29T00:21:31;156.38;;;80.68;;
70825;SDS011;58446;41.490;22.098;2023-12-29T00:23:57;177.45;;;85.15;;
70825;SDS011;58446;41.490;22.098;2023-12-29T00:26:23;162.27;;;81.60;;
70825;SDS011;58446;41.490;22.098;2023-12-29T00:28:49;164.30;;;82.72;;
70825;SDS011;58446;41.490;22.098;2023-12-29T00:31:15;166.43;;;81.85;;
70825;SDS011;58446;41.490;22.098;2023-12-29T00:33:42;168.07;;;82.47;;
70825;SDS011;58446;41.490;22.098;2023-12-29T00:36:14;154.30;;;81.70;;
70825;SDS011;58446;41.490;22.098;2023-12-29T00:38:43;165.07;;;82.65;;
70825;SDS011;58446;41.490;22.098;2023-12-29T00:41:09;146.05;;;75.25;;
70825;SDS011;58446;41.490;22.098;2023-12-29T00:43:35;129.82;;;71.03;;
70825;SDS011;58446;41.490;22.098;2023-12-29T00:46:02;122.73;;;68.93;;
70825;SDS011;58446;41.490;22.098;2023-12-29T00:48:35;135.80;;;74.38;;
70825;SDS011;58446;41.490;22.098;2023-12-29T00:51:02;111.43;;;61.20;;
70825;SDS011;58446;41.490;22.098;2023-12-29T00:53:29;115.20;;;61.20;;
70825;SDS011;58446;41.490;22.098;2023-12-29T00:55:57;108.00;;;58.50;;
70825;SDS011;58446;41.490;22.098;2023-12-29T00:58:23;92.20;;;52.50;;
70825;SDS011;58446;41.490;22.098;2023-12-29T01:00:50;65.55;;;36.88;;
70825;SDS011;58446;41.490;22.098;2023-12-29T01:03:15;75.93;;;36.78;;
70825;SDS011;58446;41.490;22.098;2023-12-29T01:05:42;69.32;;;39.97;;
70825;SDS011;58446;41.490;22.098;2023-12-29T01:08:07;91.90;;;39.40;;
70825;SDS011;58446;41.490;22.098;2023-12-29T01:10:34;72.20;;;29.45;;
70825;SDS011;58446;41.490;22.098;2023-12-29T01:13:00;56.00;;;33.05;;
70825;SDS011;58446;41.490;22.098;2023-12-29T01:15:26;57.00;;;32.53;;
70825;SDS011;58446;41.490;22.098;2023-12-29T01:17:52;53.20;;;33.03;;
70825;SDS011;58446;41.490;22.098;2023-12-29T01:20:18;45.58;;;26.50;;
70825;SDS011;58446;41.490;22.098;2023-12-29T01:22:44;46.40;;;29.00;;
70825;SDS011;58446;41.490;22.098;2023-12-29T01:25:10;50.13;;;30.15;;
70825;SDS011;58446;41.490;22.098;2023-12-29T01:27:36;48.10;;;29.73;;
70825;SDS011;58446;41.490;22.098;2023-12-29T01:30:02;52.53;;;28.67;;
70825;SDS011;58446;41.490;22.098;2023-12-29T01:32:28;45.25;;;27.13;;
70825;SDS011;58446;41.490;22.098;2023-12-29T01:34:53;49.63;;;30.17;;
70825;SDS011;58446;41.490;22.098;2023-12-29T01:37:19;53.90;;;31.40;;
70825;SDS011;58446;41.490;22.098;2023-12-29T01:39:45;58.20;;;32.83;;
70825;SDS011;58446;41.490;22.098;2023-12-29T01:42:11;56.20;;;33.90;;
70825;SDS011;58446;41.490;22.098;2023-12-29T01:44:37;59.40;;;33.88;;
70825;SDS011;58446;41.490;22.098;2023-12-29T01:47:03;60.25;;;34.78;;
70825;SDS011;58446;41.490;22.098;2023-12-29T01:49:35;59.00;;;33.30;;
70825;SDS011;58446;41.490;22.098;2023-12-29T01:52:02;58.03;;;35.37;;
70825;SDS011;58446;41.490;22.098;2023-12-29T01:54:30;58.03;;;34.92;;
70825;SDS011;58446;41.490;22.098;2023-12-29T01:57:00;58.63;;;34.97;;
70825;SDS011;58446;41.490;22.098;2023-12-29T01:59:27;57.88;;;33.30;;
70825;SDS011;58446;41.490;22.098;2023-12-29T02:01:54;52.80;;;32.65;;
70825;SDS011;58446;41.490;22.098;2023-12-29T02:04:26;79.20;;;36.67;;
70825;SDS011;58446;41.490;22.098;2023-12-29T02:06:53;63.75;;;36.28;;
70825;SDS011;58446;41.490;22.098;2023-12-29T02:09:20;71.10;;;41.58;;
70825;SDS011;58446;41.490;22.098;2023-12-29T02:11:46;84.90;;;45.25;;
70825;SDS011;58446;41.490;22.098;2023-12-29T02:14:13;63.20;;;38.45;;
70825;SDS011;58446;41.490;22.098;2023-12-29T02:16:44;63.50;;;38.80;;
70825;SDS011;58446;41.490;22.098;2023-12-29T02:22:00;67.57;;;40.35;;
70825;SDS011;58446;41.490;22.098;2023-12-29T02:24:25;102.07;;;50.50;;
70825;SDS011;58446;41.490;22.098;2023-12-29T02:26:53;78.32;;;43.60;;
70825;SDS011;58446;41.490;22.098;2023-12-29T02:29:24;83.05;;;44.10;;
70825;SDS011;58446;41.490;22.098;2023-12-29T02:31:52;80.55;;;44.92;;
70825;SDS011;58446;41.490;22.098;2023-12-29T02:34:23;74.93;;;42.23;;
70825;SDS011;58446;41.490;22.098;2023-12-29T02:36:50;73.35;;;42.28;;
70825;SDS011;58446;41.490;22.098;2023-12-29T02:39:17;69.82;;;42.05;;
70825;SDS011;58446;41.490;22.098;2023-12-29T02:41:42;63.10;;;37.95;;
70825;SDS011;58446;41.490;22.098;2023-12-29T02:44:08;60.83;;;33.97;;
70825;SDS011;58446;41.490;22.098;2023-12-29T02:46:34;64.20;;;32.40;;
70825;SDS011;58446;41.490;22.098;2023-12-29T02:49:00;67.07;;;34.63;;
70825;SDS011;58446;41.490;22.098;2023-12-29T02:51:26;64.05;;;32.03;;
70825;SDS011;58446;41.490;22.098;2023-12-29T02:53:51;53.43;;;32.47;;
70825;SDS011;58446;41.490;22.098;2023-12-29T02:56:17;62.42;;;32.85;;
70825;SDS011;58446;41.490;22.098;2023-12-29T02:58:43;56.53;;;33.38;;
70825;SDS011;58446;41.490;22.098;2023-12-29T03:01:11;54.97;;;32.00;;
70825;SDS011;58446;41.490;22.098;2023-12-29T03:03:37;55.33;;;32.28;;
70825;SDS011;58446;41.490;22.098;2023-12-29T03:06:05;52.25;;;29.95;;
70825;SDS011;58446;41.490;22.098;2023-12-29T03:08:31;49.85;;;27.42;;
70825;SDS011;58446;41.490;22.098;2023-12-29T03:10:57;50.40;;;25.88;;
70825;SDS011;58446;41.490;22.098;2023-12-29T03:13:24;44.53;;;27.13;;
70825;SDS011;58446;41.490;22.098;2023-12-29T03:15:50;45.30;;;24.60;;
70825;SDS011;58446;41.490;22.098;2023-12-29T03:18:15;38.93;;;23.00;;
70825;SDS011;58446;41.490;22.098;2023-12-29T03:20:41;48.37;;;26.87;;
70825;SDS011;58446;41.490;22.098;2023-12-29T03:23:07;47.00;;;27.40;;
70825;SDS011;58446;41.490;22.098;2023-12-29T03:25:32;53.00;;;26.97;;
70825;SDS011;58446;41.490;22.098;2023-12-29T03:27:58;54.17;;;26.80;;
70825;SDS011;58446;41.490;22.098;2023-12-29T03:30:25;49.03;;;27.25;;
70825;SDS011;58446;41.490;22.098;2023-12-29T03:32:51;58.28;;;28.42;;
70825;SDS011;58446;41.490;22.098;2023-12-29T03:35:17;51.90;;;27.07;;
70825;SDS011;58446;41.490;22.098;2023-12-29T03:37:43;52.45;;;27.25;;
70825;SDS011;58446;41.490;22.098;2023-12-29T03:40:08;51.15;;;24.20;;
70825;SDS011;58446;41.490;22.098;2023-12-29T03:42:34;43.70;;;24.87;;
70825;SDS011;58446;41.490;22.098;2023-12-29T03:45:00;47.15;;;25.83;;
70825;SDS011;58446;41.490;22.098;2023-12-29T03:47:26;55.20;;;28.42;;
70825;SDS011;58446;41.490;22.098;2023-12-29T03:49:53;62.22;;;29.33;;
70825;SDS011;58446;41.490;22.098;2023-12-29T03:52:18;66.70;;;30.20;;
70825;SDS011;58446;41.490;22.098;2023-12-29T03:54:45;55.05;;;27.83;;
70825;SDS011;58446;41.490;22.098;2023-12-29T03:57:11;48.80;;;28.17;;
70825;SDS011;58446;41.490;22.098;2023-12-29T03:59:37;68.28;;;30.85;;
70825;SDS011;58446;41.490;22.098;2023-12-29T04:02:02;45.43;;;27.17;;
70825;SDS011;58446;41.490;22.098;2023-12-29T04:04:28;63.70;;;29.33;;
70825;SDS011;58446;41.490;22.098;2023-12-29T04:06:54;56.77;;;29.67;;
70825;SDS011;58446;41.490;22.098;2023-12-29T04:09:20;44.92;;;26.73;;
70825;SDS011;58446;41.490;22.098;2023-12-29T04:11:45;49.80;;;29.67;;
70825;SDS011;58446;41.490;22.098;2023-12-29T04:14:11;46.67;;;27.00;;
70825;SDS011;58446;41.490;22.098;2023-12-29T04:16:38;43.15;;;26.90;;
70825;SDS011;58446;41.490;22.098;2023-12-29T04:19:04;47.25;;;29.05;;
70825;SDS011;58446;41.490;22.098;2023-12-29T04:21:30;48.13;;;28.63;;
70825;SDS011;58446;41.490;22.098;2023-12-29T04:23:56;41.67;;;24.50;;
70825;SDS011;58446;41.490;22.098;2023-12-29T04:26:21;47.20;;;23.50;;
70825;SDS011;58446;41.490;22.098;2023-12-29T04:28:47;43.60;;;26.75;;
70825;SDS011;58446;41.490;22.098;2023-12-29T04:31:13;39.67;;;25.47;;
70825;SDS011;58446;41.490;22.098;2023-12-29T04:33:39;40.63;;;25.50;;
70825;SDS011;58446;41.490;22.098;2023-12-29T04:36:04;36.93;;;24.00;;
70825;SDS011;58446;41.490;22.098;2023-12-29T04:38:31;36.63;;;23.75;;
70825;SDS011;58446;41.490;22.098;2023-12-29T04:40:56;37.83;;;23.83;;
70825;SDS011;58446;41.490;22.098;2023-12-29T04:43:22;40.17;;;24.77;;
70825;SDS011;58446;41.490;22.098;2023-12-29T04:45:47;37.20;;;24.20;;
70825;SDS011;58446;41.490;22.098;2023-12-29T04:48:13;40.60;;;25.43;;
70825;SDS011;58446;41.490;22.098;2023-12-29T04:50:39;47.27;;;25.73;;
70825;SDS011;58446;41.490;22.098;2023-12-29T04:53:04;42.80;;;26.37;;
70825;SDS011;58446;41.490;22.098;2023-12-29T04:55:30;45.63;;;28.52;;
70825;SDS011;58446;41.490;22.098;2023-12-29T04:57:56;45.50;;;28.20;;
70825;SDS011;58446;41.490;22.098;2023-12-29T05:00:22;46.22;;;28.73;;
70825;SDS011;58446;41.490;22.098;2023-12-29T05:02:48;47.33;;;29.10;;
70825;SDS011;58446;41.490;22.098;2023-12-29T05:05:13;45.35;;;28.27;;
70825;SDS011;58446;41.490;22.098;2023-12-29T05:07:39;44.87;;;28.90;;
70825;SDS011;58446;41.490;22.098;2023-12-29T05:10:06;47.47;;;29.30;;
70825;SDS011;58446;41.490;22.098;2023-12-29T05:12:32;45.15;;;28.75;;
70825;SDS011;58446;41.490;22.098;2023-12-29T05:14:58;45.33;;;29.02;;
70825;SDS011;58446;41.490;22.098;2023-12-29T05:17:24;60.60;;;34.93;;
70825;SDS011;58446;41.490;22.098;2023-12-29T05:19:49;52.10;;;31.67;;
70825;SDS011;58446;41.490;22.098;2023-12-29T05:22:15;50.43;;;30.87;;
70825;SDS011;58446;41.490;22.098;2023-12-29T05:24:43;47.85;;;30.35;;
70825;SDS011;58446;41.490;22.098;2023-12-29T05:27:10;52.40;;;30.17;;
70825;SDS011;58446;41.490;22.098;2023-12-29T05:29:39;46.75;;;29.60;;
70825;SDS011;58446;41.490;22.098;2023-12-29T05:32:05;44.70;;;27.50;;
70825;SDS011;58446;41.490;22.098;2023-12-29T05:34:31;48.65;;;28.70;;
70825;SDS011;58446;41.490;22.098;2023-12-29T05:36:57;43.03;;;27.20;;
70825;SDS011;58446;41.490;22.098;2023-12-29T05:39:23;48.70;;;27.65;;
70825;SDS011;58446;41.490;22.098;2023-12-29T05:41:49;43.72;;;27.42;;
70825;SDS011;58446;41.490;22.098;2023-12-29T05:44:15;42.60;;;27.10;;
70825;SDS011;58446;41.490;22.098;2023-12-29T05:46:41;36.88;;;25.20;;
70825;SDS011;58446;41.490;22.098;2023-12-29T05:49:06;36.17;;;21.90;;
70825;SDS011;58446;41.490;22.098;2023-12-29T05:51:32;31.33;;;21.30;;
70825;SDS011;58446;41.490;22.098;2023-12-29T05:53:58;36.67;;;23.57;;
70825;SDS011;58446;41.490;22.098;2023-12-29T05:56:23;35.75;;;23.35;;
70825;SDS011;58446;41.490;22.098;2023-12-29T05:58:49;36.37;;;23.80;;
70825;SDS011;58446;41.490;22.098;2023-12-29T06:01:15;36.88;;;23.00;;
70825;SDS011;58446;41.490;22.098;2023-12-29T06:03:40;44.93;;;23.77;;
70825;SDS011;58446;41.490;22.098;2023-12-29T06:06:06;49.35;;;25.58;;
70825;SDS011;58446;41.490;22.098;2023-12-29T06:08:32;49.07;;;24.40;;
70825;SDS011;58446;41.490;22.098;2023-12-29T06:10:58;47.88;;;25.50;;
70825;SDS011;58446;41.490;22.098;2023-12-29T06:13:24;62.40;;;31.83;;
70825;SDS011;58446;41.490;22.098;2023-12-29T06:15:49;82.90;;;40.17;;
70825;SDS011;58446;41.490;22.098;2023-12-29T06:18:15;76.57;;;39.93;;
70825;SDS011;58446;41.490;22.098;2023-12-29T06:20:41;92.05;;;45.20;;
70825;SDS011;58446;41.490;22.098;2023-12-29T06:23:07;119.97;;;54.63;;
70825;SDS011;58446;41.490;22.098;2023-12-29T06:25:32;104.60;;;46.63;;
70825;SDS011;58446;41.490;22.098;2023-12-29T06:27:59;65.68;;;37.33;;
70825;SDS011;58446;41.490;22.098;2023-12-29T06:30:25;77.57;;;38.43;;
70825;SDS011;58446;41.490;22.098;2023-12-29T06:32:51;72.60;;;36.22;;
70825;SDS011;58446;41.490;22.098;2023-12-29T06:35:17;86.70;;;34.20;;
70825;SDS011;58446;41.490;22.098;2023-12-29T06:37:43;61.08;;;28.27;;
70825;SDS011;58446;41.490;22.098;2023-12-29T06:40:09;56.42;;;23.90;;
70825;SDS011;58446;41.490;22.098;2023-12-29T06:42:34;48.10;;;24.77;;
70825;SDS011;58446;41.490;22.098;2023-12-29T06:45:00;46.93;;;26.47;;
70825;SDS011;58446;41.490;22.098;2023-12-29T06:47:26;48.10;;;28.48;;
70825;SDS011;58446;41.490;22.098;2023-12-29T06:49:52;46.30;;;27.73;;
70825;SDS011;58446;41.490;22.098;2023-12-29T06:52:18;54.43;;;29.53;;
70825;SDS011;58446;41.490;22.098;2023-12-29T06:54:43;46.45;;;27.38;;
70825;SDS011;58446;41.490;22.098;2023-12-29T06:57:09;57.43;;;26.90;;
70825;SDS011;58446;41.490;22.098;2023-12-29T06:59:35;43.58;;;25.67;;
70825;SDS011;58446;41.490;22.098;2023-12-29T07:02:02;46.75;;;25.80;;
70825;SDS011;58446;41.490;22.098;2023-12-29T07:04:27;44.40;;;21.87;;
70825;SDS011;58446;41.490;22.098;2023-12-29T07:06:53;40.55;;;24.20;;
70825;SDS011;58446;41.490;22.098;2023-12-29T07:09:19;35.23;;;20.77;;
70825;SDS011;58446;41.490;22.098;2023-12-29T07:11:48;31.05;;;18.42;;
70825;SDS011;58446;41.490;22.098;2023-12-29T07:14:15;33.03;;;21.08;;
70825;SDS011;58446;41.490;22.098;2023-12-29T07:16:41;34.28;;;20.80;;
70825;SDS011;58446;41.490;22.098;2023-12-29T07:19:06;33.17;;;18.87;;
70825;SDS011;58446;41.490;22.098;2023-12-29T07:21:32;33.40;;;19.88;;
70825;SDS011;58446;41.490;22.098;2023-12-29T07:23:58;30.33;;;19.17;;
70825;SDS011;58446;41.490;22.098;2023-12-29T07:26:23;32.33;;;20.50;;
70825;SDS011;58446;41.490;22.098;2023-12-29T07:28:49;41.60;;;25.63;;
70825;SDS011;58446;41.490;22.098;2023-12-29T07:31:19;36.35;;;21.67;;
70825;SDS011;58446;41.490;22.098;2023-12-29T07:33:46;50.30;;;26.75;;
70825;SDS011;58446;41.490;22.098;2023-12-29T07:36:15;56.77;;;33.93;;
70825;SDS011;58446;41.490;22.098;2023-12-29T07:38:41;47.50;;;26.25;;
70825;SDS011;58446;41.490;22.098;2023-12-29T07:41:07;37.78;;;24.38;;
70825;SDS011;58446;41.490;22.098;2023-12-29T07:43:34;54.05;;;28.42;;
70825;SDS011;58446;41.490;22.098;2023-12-29T07:46:01;93.03;;;43.30;;
70825;SDS011;58446;41.490;22.098;2023-12-29T07:48:27;52.20;;;28.87;;
70825;SDS011;58446;41.490;22.098;2023-12-29T07:50:53;84.60;;;40.97;;
70825;SDS011;58446;41.490;22.098;2023-12-29T07:53:19;73.20;;;39.63;;
70825;SDS011;58446;41.490;22.098;2023-12-29T07:55:44;69.70;;;41.13;;
70825;SDS011;58446;41.490;22.098;2023-12-29T07:58:12;95.22;;;44.95;;
70825;SDS011;58446;41.490;22.098;2023-12-29T08:00:38;65.68;;;35.78;;
70825;SDS011;58446;41.490;22.098;2023-12-29T08:03:03;67.47;;;35.93;;
70825;SDS011;58446;41.490;22.098;2023-12-29T08:05:30;64.93;;;33.90;;
70825;SDS011;58446;41.490;22.098;2023-12-29T08:07:56;58.07;;;33.13;;
70825;SDS011;58446;41.490;22.098;2023-12-29T08:10:22;55.13;;;30.83;;
70825;SDS011;58446;41.490;22.098;2023-12-29T08:12:47;46.53;;;27.87;;
70825;SDS011;58446;41.490;22.098;2023-12-29T08:15:13;42.60;;;25.50;;
70825;SDS011;58446;41.490;22.098;2023-12-29T08:17:39;43.97;;;25.63;;
70825;SDS011;58446;41.490;22.098;2023-12-29T08:20:05;46.08;;;25.02;;
70825;SDS011;58446;41.490;22.098;2023-12-29T08:22:31;48.30;;;25.40;;
70825;SDS011;58446;41.490;22.098;2023-12-29T08:24:58;44.20;;;26.13;;
70825;SDS011;58446;41.490;22.098;2023-12-29T08:27:26;44.80;;;25.27;;
70825;SDS011;58446;41.490;22.098;2023-12-29T08:29:52;48.22;;;27.42;;
70825;SDS011;58446;41.490;22.098;2023-12-29T08:32:19;74.53;;;35.78;;
70825;SDS011;58446;41.490;22.098;2023-12-29T08:34:45;47.33;;;28.63;;
70825;SDS011;58446;41.490;22.098;2023-12-29T08:37:11;39.40;;;25.13;;
70825;SDS011;58446;41.490;22.098;2023-12-29T08:39:37;37.38;;;21.30;;
70825;SDS011;58446;41.490;22.098;2023-12-29T08:42:03;62.37;;;35.10;;
70825;SDS011;58446;41.490;22.098;2023-12-29T08:44:29;45.60;;;26.38;;
70825;SDS011;58446;41.490;22.098;2023-12-29T08:46:55;40.37;;;24.03;;
70825;SDS011;58446;41.490;22.098;2023-12-29T08:49:21;47.40;;;26.60;;
70825;SDS011;58446;41.490;22.098;2023-12-29T08:51:46;45.58;;;26.33;;
70825;SDS011;58446;41.490;22.098;2023-12-29T08:54:12;39.63;;;26.43;;
70825;SDS011;58446;41.490;22.098;2023-12-29T08:56:38;78.57;;;36.70;;
70825;SDS011;58446;41.490;22.098;2023-12-29T08:59:04;63.63;;;34.10;;
70825;SDS011;58446;41.490;22.098;2023-12-29T09:01:30;50.80;;;28.67;;
70825;SDS011;58446;41.490;22.098;2023-12-29T09:03:56;57.05;;;30.80;;
70825;SDS011;58446;41.490;22.098;2023-12-29T09:06:21;52.15;;;29.95;;
70825;SDS011;58446;41.490;22.098;2023-12-29T09:08:47;45.47;;;26.57;;
70825;SDS011;58446;41.490;22.098;2023-12-29T09:11:13;44.20;;;26.27;;
70825;SDS011;58446;41.490;22.098;2023-12-29T09:13:38;46.47;;;27.67;;
70825;SDS011;58446;41.490;22.098;2023-12-29T09:16:04;37.58;;;19.90;;
70825;SDS011;58446;41.490;22.098;2023-12-29T09:18:30;33.03;;;19.77;;
70825;SDS011;58446;41.490;22.098;2023-12-29T09:20:56;35.50;;;20.98;;
70825;SDS011;58446;41.490;22.098;2023-12-29T09:23:30;38.03;;;23.03;;
70825;SDS011;58446;41.490;22.098;2023-12-29T09:25:57;45.47;;;26.55;;
70825;SDS011;58446;41.490;22.098;2023-12-29T09:28:33;33.40;;;19.52;;
70825;SDS011;58446;41.490;22.098;2023-12-29T09:31:03;49.40;;;28.00;;
70825;SDS011;58446;41.490;22.098;2023-12-29T09:33:30;44.83;;;28.67;;
70825;SDS011;58446;41.490;22.098;2023-12-29T09:35:56;36.43;;;22.33;;
70825;SDS011;58446;41.490;22.098;2023-12-29T09:38:25;38.78;;;23.42;;
70825;SDS011;58446;41.490;22.098;2023-12-29T09:40:51;40.80;;;23.13;;
70825;SDS011;58446;41.490;22.098;2023-12-29T09:43:19;46.97;;;27.00;;
70825;SDS011;58446;41.490;22.098;2023-12-29T09:45:45;50.40;;;30.52;;
70825;SDS011;58446;41.490;22.098;2023-12-29T09:48:15;54.70;;;30.33;;
70825;SDS011;58446;41.490;22.098;2023-12-29T09:50:44;68.63;;;35.78;;
70825;SDS011;58446;41.490;22.098;2023-12-29T09:53:11;64.03;;;36.00;;
70825;SDS011;58446;41.490;22.098;2023-12-29T09:55:39;81.55;;;44.83;;
70825;SDS011;58446;41.490;22.098;2023-12-29T09:58:07;86.18;;;42.42;;
70825;SDS011;58446;41.490;22.098;2023-12-29T10:00:34;80.07;;;41.03;;
70825;SDS011;58446;41.490;22.098;2023-12-29T10:03:00;87.25;;;43.97;;
70825;SDS011;58446;41.490;22.098;2023-12-29T10:05:26;100.37;;;46.33;;
70825;SDS011;58446;41.490;22.098;2023-12-29T10:07:52;85.07;;;44.45;;
70825;SDS011;58446;41.490;22.098;2023-12-29T10:10:19;96.40;;;46.30;;
70825;SDS011;58446;41.490;22.098;2023-12-29T10:12:48;86.43;;;44.33;;
70825;SDS011;58446;41.490;22.098;2023-12-29T10:15:29;68.32;;;37.33;;
70825;SDS011;58446;41.490;22.098;2023-12-29T10:24:21;70.75;;;34.45;;
70825;SDS011;58446;41.490;22.098;2023-12-29T10:26:48;68.32;;;37.10;;
70825;SDS011;58446;41.490;22.098;2023-12-29T10:29:14;68.72;;;37.80;;
70825;SDS011;58446;41.490;22.098;2023-12-29T10:31:40;70.50;;;35.07;;
70825;SDS011;58446;41.490;22.098;2023-12-29T10:34:19;75.22;;;37.45;;
70825;SDS011;58446;41.490;22.098;2023-12-29T10:36:55;70.13;;;34.80;;
70825;SDS011;58446;41.490;22.098;2023-12-29T10:39:21;37.47;;;21.42;;
70825;SDS011;58446;41.490;22.098;2023-12-29T10:41:48;45.33;;;22.40;;
70825;SDS011;58446;41.490;22.098;2023-12-29T10:44:15;44.13;;;24.45;;
70825;SDS011;58446;41.490;22.098;2023-12-29T10:46:41;44.53;;;24.70;;
70825;SDS011;58446;41.490;22.098;2023-12-29T10:49:08;44.00;;;24.00;;
70825;SDS011;58446;41.490;22.098;2023-12-29T10:51:37;46.85;;;23.85;;
70825;SDS011;58446;41.490;22.098;2023-12-29T10:54:04;32.33;;;17.33;;
70825;SDS011;58446;41.490;22.098;2023-12-29T10:56:31;34.92;;;17.92;;
70825;SDS011;58446;41.490;22.098;2023-12-29T10:58:59;35.25;;;20.13;;
70825;SDS011;58446;41.490;22.098;2023-12-29T11:01:26;40.67;;;22.00;;
70825;SDS011;58446;41.490;22.098;2023-12-29T11:04:01;41.60;;;22.48;;
70825;SDS011;58446;41.490;22.098;2023-12-29T11:06:28;40.35;;;22.25;;
70825;SDS011;58446;41.490;22.098;2023-12-29T11:08:55;40.72;;;21.75;;
70825;SDS011;58446;41.490;22.098;2023-12-29T11:11:22;41.28;;;22.60;;
70825;SDS011;58446;41.490;22.098;2023-12-29T11:13:48;39.27;;;22.03;;
70825;SDS011;58446;41.490;22.098;2023-12-29T11:16:16;42.30;;;21.45;;
70825;SDS011;58446;41.490;22.098;2023-12-29T11:18:48;41.60;;;22.50;;
70825;SDS011;58446;41.490;22.098;2023-12-29T11:21:17;77.88;;;45.30;;
70825;SDS011;58446;41.490;22.098;2023-12-29T11:23:44;40.40;;;22.70;;
70825;SDS011;58446;41.490;22.098;2023-12-29T11:26:10;43.83;;;22.33;;
70825;SDS011;58446;41.490;22.098;2023-12-29T11:28:40;48.45;;;23.75;;
70825;SDS011;58446;41.490;22.098;2023-12-29T11:31:07;45.70;;;23.08;;
70825;SDS011;58446;41.490;22.098;2023-12-29T11:33:38;41.85;;;21.75;;
70825;SDS011;58446;41.490;22.098;2023-12-29T11:36:11;46.30;;;21.03;;
70825;SDS011;58446;41.490;22.098;2023-12-29T11:41:20;53.35;;;27.60;;
70825;SDS011;58446;41.490;22.098;2023-12-29T11:43:56;50.55;;;25.13;;
70825;SDS011;58446;41.490;22.098;2023-12-29T11:46:42;46.65;;;24.30;;
70825;SDS011;58446;41.490;22.098;2023-12-29T11:49:09;46.83;;;23.33;;
70825;SDS011;58446;41.490;22.098;2023-12-29T11:51:36;47.80;;;21.75;;
70825;SDS011;58446;41.490;22.098;2023-12-29T11:54:07;40.80;;;20.33;;
70825;SDS011;58446;41.490;22.098;2023-12-29T11:56:39;42.60;;;22.77;;
70825;SDS011;58446;41.490;22.098;2023-12-29T11:59:24;45.92;;;23.73;;
70825;SDS011;58446;41.490;22.098;2023-12-29T12:01:53;44.60;;;21.50;;
70825;SDS011;58446;41.490;22.098;2023-12-29T12:04:36;43.47;;;23.25;;
70825;SDS011;58446;41.490;22.098;2023-12-29T12:07:12;43.30;;;22.95;;
70825;SDS011;58446;41.490;22.098;2023-12-29T12:09:41;40.08;;;23.35;;
70825;SDS011;58446;41.490;22.098;2023-12-29T12:12:07;45.00;;;23.40;;
70825;SDS011;58446;41.490;22.098;2023-12-29T12:14:46;38.42;;;22.00;;
70825;SDS011;58446;41.490;22.098;2023-12-29T12:17:30;37.30;;;21.23;;
70825;SDS011;58446;41.490;22.098;2023-12-29T12:20:09;35.65;;;20.40;;
70825;SDS011;58446;41.490;22.098;2023-12-29T12:22:38;39.50;;;21.93;;
70825;SDS011;58446;41.490;22.098;2023-12-29T12:25:07;37.67;;;20.13;;
70825;SDS011;58446;41.490;22.098;2023-12-29T12:27:34;38.72;;;21.65;;
70825;SDS011;58446;41.490;22.098;2023-12-29T12:30:04;41.35;;;23.80;;
70825;SDS011;58446;41.490;22.098;2023-12-29T12:32:30;44.63;;;24.15;;
70825;SDS011;58446;41.490;22.098;2023-12-29T12:34:57;40.97;;;23.77;;
70825;SDS011;58446;41.490;22.098;2023-12-29T12:37:23;40.92;;;21.83;;
70825;SDS011;58446;41.490;22.098;2023-12-29T12:39:50;44.17;;;24.33;;
70825;SDS011;58446;41.490;22.098;2023-12-29T12:42:18;46.50;;;24.13;;
70825;SDS011;58446;41.490;22.098;2023-12-29T12:47:37;41.38;;;23.90;;
70825;SDS011;58446;41.490;22.098;2023-12-29T12:50:13;43.38;;;23.50;;
70825;SDS011;58446;41.490;22.098;2023-12-29T12:52:40;39.97;;;22.80;;
70825;SDS011;58446;41.490;22.098;2023-12-29T12:55:10;37.50;;;21.93;;
70825;SDS011;58446;41.490;22.098;2023-12-29T12:57:37;38.58;;;23.90;;
70825;SDS011;58446;41.490;22.098;2023-12-29T13:00:03;42.17;;;24.83;;
70825;SDS011;58446;41.490;22.098;2023-12-29T13:02:31;39.65;;;23.30;;
70825;SDS011;58446;41.490;22.098;2023-12-29T13:04:59;41.55;;;24.35;;
70825;SDS011;58446;41.490;22.098;2023-12-29T13:07:25;37.80;;;22.90;;
70825;SDS011;58446;41.490;22.098;2023-12-29T13:09:51;40.22;;;24.73;;
70825;SDS011;58446;41.490;22.098;2023-12-29T13:12:18;42.75;;;23.65;;
70825;SDS011;58446;41.490;22.098;2023-12-29T13:14:44;33.80;;;19.42;;
70825;SDS011;58446;41.490;22.098;2023-12-29T13:17:13;37.97;;;22.67;;
70825;SDS011;58446;41.490;22.098;2023-12-29T13:19:53;45.80;;;25.37;;
70825;SDS011;58446;41.490;22.098;2023-12-29T13:22:23;42.97;;;24.88;;
70825;SDS011;58446;41.490;22.098;2023-12-29T13:24:49;42.50;;;24.88;;
70825;SDS011;58446;41.490;22.098;2023-12-29T13:27:15;36.23;;;21.27;;
70825;SDS011;58446;41.490;22.098;2023-12-29T13:29:41;33.85;;;21.02;;
70825;SDS011;58446;41.490;22.098;2023-12-29T13:32:10;34.00;;;22.02;;
70825;SDS011;58446;41.490;22.098;2023-12-29T13:37:16;32.50;;;19.90;;
70825;SDS011;58446;41.490;22.098;2023-12-29T13:39:53;33.70;;;19.57;;
70825;SDS011;58446;41.490;22.098;2023-12-29T13:42:37;37.80;;;25.15;;
70825;SDS011;58446;41.490;22.098;2023-12-29T13:45:05;32.17;;;20.55;;
70825;SDS011;58446;41.490;22.098;2023-12-29T13:47:34;32.22;;;20.45;;
70825;SDS011;58446;41.490;22.098;2023-12-29T13:50:02;35.05;;;21.58;;
70825;SDS011;58446;41.490;22.098;2023-12-29T13:52:31;32.97;;;21.93;;
70825;SDS011;58446;41.490;22.098;2023-12-29T13:54:57;30.40;;;20.90;;
70825;SDS011;58446;41.490;22.098;2023-12-29T13:57:30;30.40;;;17.70;;
70825;SDS011;58446;41.490;22.098;2023-12-29T14:00:18;29.10;;;18.00;;
70825;SDS011;58446;41.490;22.098;2023-12-29T14:08:00;25.02;;;16.67;;
70825;SDS011;58446;41.490;22.098;2023-12-29T14:10:31;26.58;;;17.20;;
70825;SDS011;58446;41.490;22.098;2023-12-29T14:13:16;27.52;;;15.80;;
70825;SDS011;58446;41.490;22.098;2023-12-29T14:15:43;26.55;;;16.02;;
70825;SDS011;58446;41.490;22.098;2023-12-29T14:20:38;24.35;;;15.07;;
70825;SDS011;58446;41.490;22.098;2023-12-29T14:23:07;23.10;;;15.38;;
70825;SDS011;58446;41.490;22.098;2023-12-29T14:25:34;30.53;;;17.63;;
70825;SDS011;58446;41.490;22.098;2023-12-29T14:28:04;26.40;;;15.52;;
70825;SDS011;58446;41.490;22.098;2023-12-29T14:30:40;23.67;;;14.77;;
70825;SDS011;58446;41.490;22.098;2023-12-29T14:33:06;23.67;;;14.40;;
70825;SDS011;58446;41.490;22.098;2023-12-29T14:35:32;25.65;;;13.45;;